Holcombville, New York
Current Conditions -  °F | °C
As of 4:53 AM on Monday 26 Jan 2015 (Local Time) from KGFL Reporting Station
Clear Clear  
Wind Chill: -4°   Ceiling: Unl
Heat Index:   Visibility: 10mi
Dew Point: -2°   Wind: 5mph
Humidity: 73%   Direction: 360°N
Pressure: 30.12"   Gusts: NA
Location:  43.7289°N, 73.9027°W
Report Text: KGFL 260953Z AUTO 36004KT 10SM CLR M15/M19 A3012 RMK AO2 SLP214 T11501189
Loading
Personal Weather Stations






























Interactive Weather Map New forecast layout! Learn more

10-Day Weather Forecast

Advertisements
Track Severe Weather on mobile